Time;durP1;ratioP1;P1;durP2;ratioP2;P2;SDS_P1;SDS_P2;PMS_P1;PMS_P2;Temp;Humidity;BMP_temperature;BMP_pressure;BME280_temperature;BME280_humidity;BME280_pressure;Samples;Min_cycle;Max_cycle;Signal;HPM_P1;HPM_P2
2023/08/24 00:02:03;;;;;;;14.80;7.90;;;16.30;99.90;;;;;;5052236;28;20075;-73
2023/08/24 00:04:29;;;;;;;16.80;7.67;;;16.30;99.90;;;;;;5054079;28;20457;-74
2023/08/24 00:06:55;;;;;;;13.90;7.33;;;16.30;99.90;;;;;;5052017;28;20524;-73
2023/08/24 00:09:21;;;;;;;16.53;7.73;;;16.20;99.90;;;;;;5035698;28;20041;-75
2023/08/24 00:11:46;;;;;;;17.73;7.47;;;16.20;99.90;;;;;;5053209;28;20111;-74
2023/08/24 00:14:12;;;;;;;16.40;7.63;;;16.10;99.90;;;;;;5035343;28;20556;-72
2023/08/24 00:16:38;;;;;;;13.43;7.90;;;16.10;99.90;;;;;;5053260;28;20082;-74
2023/08/24 00:19:04;;;;;;;15.57;7.67;;;16.10;99.90;;;;;;5053684;28;20045;-74
2023/08/24 00:21:30;;;;;;;14.47;7.53;;;16.00;99.90;;;;;;5053214;28;20056;-74
2023/08/24 00:23:56;;;;;;;16.27;8.10;;;16.00;99.90;;;;;;5051815;28;20289;-73
2023/08/24 00:26:23;;;;;;;18.27;8.13;;;16.00;99.90;;;;;;5052731;28;20181;-75
2023/08/24 00:28:49;;;;;;;20.27;8.43;;;16.00;99.90;;;;;;5052647;28;20124;-74
2023/08/24 00:31:18;;;;;;;17.50;8.27;;;15.90;99.90;;;;;;5051948;28;20125;-73
2023/08/24 00:33:43;;;;;;;20.10;8.10;;;15.90;99.90;;;;;;5053059;28;20052;-74
2023/08/24 00:36:10;;;;;;;18.90;7.13;;;15.90;99.90;;;;;;5035443;28;20045;-75
2023/08/24 00:38:36;;;;;;;17.25;7.60;;;15.90;99.90;;;;;;5052209;28;20049;-73
2023/08/24 00:41:02;;;;;;;19.48;8.50;;;15.90;99.90;;;;;;5053846;28;20094;-75
2023/08/24 00:43:28;;;;;;;14.77;6.47;;;15.90;99.90;;;;;;5053716;28;20045;-74
2023/08/24 00:45:56;;;;;;;14.52;6.40;;;15.90;99.90;;;;;;5053264;28;20052;-74
2023/08/24 00:48:26;;;;;;;14.63;6.90;;;15.90;99.90;;;;;;5057538;28;20373;-75
2023/08/24 00:50:56;;;;;;;16.25;6.32;;;15.90;99.90;;;;;;5039902;28;20385;-75
2023/08/24 00:53:25;;;;;;;17.52;6.47;;;15.90;99.90;;;;;;5057478;28;20091;-74
2023/08/24 00:55:51;;;;;;;11.93;6.68;;;15.90;99.90;;;;;;5057108;28;20041;-74
2023/08/24 00:58:17;;;;;;;18.30;6.97;;;15.90;99.90;;;;;;5056435;28;20538;-74
2023/08/24 01:00:43;;;;;;;19.20;7.18;;;15.90;99.90;;;;;;5056465;28;20051;-74
2023/08/24 01:03:09;;;;;;;18.10;6.75;;;15.90;99.90;;;;;;5038500;28;20049;-74
2023/08/24 01:05:34;;;;;;;15.90;7.15;;;15.90;99.90;;;;;;5056428;28;20044;-75
2023/08/24 01:08:00;;;;;;;19.07;7.07;;;15.90;99.90;;;;;;5056097;28;20063;-73
2023/08/24 01:10:36;;;;;;;15.13;6.68;;;16.00;99.90;;;;;;5056646;28;20141;-74
2023/08/24 01:13:08;;;;;;;18.55;6.80;;;16.10;99.90;;;;;;5056619;28;20068;-73
2023/08/24 01:15:55;;;;;;;17.35;6.72;;;16.10;99.90;;;;;;5056972;28;20126;-74
2023/08/24 01:18:23;;;;;;;20.02;7.07;;;16.10;99.90;;;;;;5056794;28;20049;-74
2023/08/24 01:20:49;;;;;;;16.23;7.07;;;16.20;99.90;;;;;;5056036;28;20389;-73
2023/08/24 01:23:42;;;;;;;18.13;7.30;;;16.10;99.90;;;;;;5054885;28;20049;-74
2023/08/24 01:26:18;;;;;;;16.38;6.63;;;16.20;99.90;;;;;;5056129;28;20389;-73
2023/08/24 01:28:45;;;;;;;23.40;7.60;;;16.20;99.90;;;;;;5054890;28;20049;-74
2023/08/24 01:31:16;;;;;;;20.10;7.82;;;16.20;99.90;;;;;;5038417;28;20045;-73
2023/08/24 01:33:43;;;;;;;18.17;7.63;;;16.20;99.90;;;;;;5056486;28;20382;-75
2023/08/24 01:36:10;;;;;;;;;;;16.20;99.90;;;;;;5054675;28;20045;-73
2023/08/24 01:38:37;;;;;;;18.38;7.38;;;16.20;99.90;;;;;;5055791;28;20466;-73
2023/08/24 01:41:26;;;;;;;21.17;8.02;;;16.20;99.90;;;;;;5055266;28;20187;-75
2023/08/24 01:43:57;;;;;;;26.52;8.13;;;16.20;99.90;;;;;;5054825;28;20048;-75
2023/08/24 01:46:24;;;;;;;20.17;7.57;;;16.20;99.90;;;;;;5055332;28;20041;-74
2023/08/24 01:48:52;;;;;;;16.98;8.50;;;16.20;99.90;;;;;;5055595;28;20428;-74
2023/08/24 01:51:18;;;;;;;18.33;7.53;;;16.30;99.90;;;;;;5055293;28;20045;-75
2023/08/24 01:53:44;;;;;;;17.75;7.50;;;16.30;99.90;;;;;;5055532;28;20099;-74
2023/08/24 01:56:12;;;;;;;19.92;8.20;;;16.30;99.90;;;;;;5055292;28;20052;-73
2023/08/24 01:58:37;;;;;;;18.58;7.85;;;16.30;99.90;;;;;;5054684;28;20039;-74
2023/08/24 02:01:05;;;;;;;18.67;7.97;;;16.30;99.90;;;;;;5054526;28;20444;-74
2023/08/24 02:03:30;;;;;;;17.90;7.78;;;16.40;99.90;;;;;;5053902;28;20049;-73
2023/08/24 02:05:56;;;;;;;16.92;8.57;;;16.40;99.90;;;;;;5055513;28;20056;-74
2023/08/24 02:08:22;;;;;;;22.67;9.33;;;16.40;99.90;;;;;;5053998;28;20124;-74
2023/08/24 02:10:48;;;;;;;22.45;7.95;;;16.40;99.90;;;;;;5055036;28;20486;-75
2023/08/24 02:13:13;;;;;;;21.85;9.00;;;16.40;99.90;;;;;;5053581;28;20048;-74
2023/08/24 02:15:39;;;;;;;19.63;8.10;;;16.40;99.90;;;;;;5055069;28;20057;-76
2023/08/24 02:18:06;;;;;;;22.95;9.13;;;16.40;99.90;;;;;;5055163;28;20045;-75
2023/08/24 02:20:35;;;;;;;25.92;10.07;;;16.40;99.90;;;;;;5054718;28;20048;-76
2023/08/24 02:23:01;;;;;;;20.13;8.75;;;16.30;99.90;;;;;;5055617;28;20127;-76
2023/08/24 02:25:27;;;;;;;24.00;9.60;;;16.30;99.90;;;;;;5054484;28;20570;-76
2023/08/24 02:27:53;;;;;;;23.37;9.40;;;16.30;99.90;;;;;;5054858;28;20056;-76
2023/08/24 02:30:19;;;;;;;25.27;9.82;;;16.20;99.90;;;;;;5053410;28;20401;-76
2023/08/24 02:32:45;;;;;;;26.65;9.23;;;16.30;99.90;;;;;;5037161;28;20053;-77
2023/08/24 02:35:11;;;;;;;24.33;9.80;;;16.20;99.90;;;;;;5053922;28;20048;-77
2023/08/24 02:37:36;;;;;;;22.77;9.13;;;16.20;99.90;;;;;;5054670;28;20283;-76
2023/08/24 02:40:03;;;;;;;23.43;10.03;;;16.20;99.90;;;;;;5054576;28;20049;-76
2023/08/24 02:42:31;;;;;;;24.75;9.57;;;16.20;99.90;;;;;;5053233;28;20389;-76
2023/08/24 02:44:57;;;;;;;22.10;9.57;;;16.20;99.90;;;;;;5053268;28;20053;-75
2023/08/24 02:47:23;;;;;;;27.67;9.68;;;16.30;99.90;;;;;;5036627;28;20037;-75
2023/08/24 02:49:48;;;;;;;20.48;9.45;;;16.30;99.90;;;;;;5054306;28;20378;-75
2023/08/24 02:52:14;;;;;;;22.47;9.90;;;16.30;99.90;;;;;;5054254;28;20049;-74
2023/08/24 02:54:40;;;;;;;25.70;11.07;;;16.30;99.90;;;;;;5053791;28;20049;-76
2023/08/24 02:57:05;;;;;;;28.58;10.13;;;16.20;99.90;;;;;;5054526;28;20150;-75
2023/08/24 02:59:31;;;;;;;26.20;10.33;;;16.20;99.90;;;;;;5054400;28;20064;-75
2023/08/24 03:01:58;;;;;;;20.53;9.23;;;16.20;99.90;;;;;;5053885;28;20045;-76
2023/08/24 03:04:23;;;;;;;27.30;9.98;;;16.20;99.90;;;;;;5054666;28;20053;-75
2023/08/24 03:06:49;;;;;;;29.60;10.63;;;16.20;99.90;;;;;;5053086;28;20500;-75
2023/08/24 03:09:15;;;;;;;23.83;10.20;;;16.20;99.90;;;;;;5053422;28;20497;-75
2023/08/24 03:11:41;;;;;;;27.70;10.67;;;16.20;99.90;;;;;;5053088;28;20047;-75
2023/08/24 03:14:07;;;;;;;28.80;11.30;;;16.10;99.90;;;;;;5052504;28;20099;-75
2023/08/24 03:16:33;;;;;;;27.30;11.55;;;16.10;99.90;;;;;;5053957;28;20319;-75
2023/08/24 03:18:59;;;;;;;26.10;11.47;;;16.20;99.90;;;;;;5054468;28;20123;-76
2023/08/24 03:21:24;;;;;;;26.27;11.90;;;16.10;99.90;;;;;;5053640;28;20131;-74
2023/08/24 03:23:50;;;;;;;30.67;10.97;;;16.00;99.90;;;;;;5086335;28;20124;-76
2023/08/24 03:26:16;;;;;;;28.23;11.03;;;16.10;99.90;;;;;;5053229;28;20098;-76
2023/08/24 03:28:43;;;;;;;32.85;11.70;;;16.00;99.90;;;;;;5036549;28;20057;-75
2023/08/24 03:31:08;;;;;;;27.23;12.30;;;16.00;99.90;;;;;;5054723;28;20084;-75
2023/08/24 03:33:34;;;;;;;31.77;13.07;;;15.90;99.90;;;;;;5054453;28;20401;-74
2023/08/24 03:36:02;;;;;;;29.23;12.53;;;15.90;99.90;;;;;;5055814;28;20059;-74
2023/08/24 03:38:28;;;;;;;29.52;13.05;;;15.90;99.90;;;;;;5087946;28;20056;-75
2023/08/24 03:41:00;;;;;;;29.48;12.57;;;15.90;99.90;;;;;;5055361;28;20397;-76
2023/08/24 03:43:26;;;;;;;33.17;13.45;;;15.80;99.90;;;;;;5053616;28;20057;-77
2023/08/24 03:45:52;;;;;;;30.63;12.85;;;15.80;99.90;;;;;;5054272;28;20385;-76
2023/08/24 03:48:17;;;;;;;27.83;12.60;;;15.80;99.90;;;;;;5068959;28;20041;-76
2023/08/24 03:50:43;;;;;;;30.10;13.07;;;15.80;99.90;;;;;;5053451;28;20044;-75
2023/08/24 03:53:09;;;;;;;31.00;13.43;;;15.70;99.90;;;;;;5053649;28;20048;-76
2023/08/24 03:55:34;;;;;;;29.07;12.97;;;15.70;99.90;;;;;;5053398;28;20174;-76
2023/08/24 03:58:00;;;;;;;32.20;13.80;;;15.70;99.90;;;;;;5053152;28;20052;-75
2023/08/24 04:00:26;;;;;;;32.47;14.25;;;15.70;99.90;;;;;;5053627;28;20163;-74
2023/08/24 04:02:52;;;;;;;33.03;12.88;;;15.60;99.90;;;;;;5052166;28;20111;-76
2023/08/24 04:05:17;;;;;;;29.88;12.80;;;15.60;99.90;;;;;;5053978;28;20359;-77
2023/08/24 04:07:43;;;;;;;32.03;13.03;;;15.60;99.90;;;;;;5053372;28;20423;-75
2023/08/24 04:10:09;;;;;;;35.22;14.43;;;15.60;99.90;;;;;;5053709;28;20045;-75
2023/08/24 04:12:35;;;;;;;35.70;13.93;;;15.50;99.90;;;;;;5053230;28;20053;-76
2023/08/24 04:15:02;;;;;;;37.75;15.57;;;15.50;99.90;;;;;;5052894;28;20393;-75
2023/08/24 04:17:28;;;;;;;38.17;16.02;;;15.50;99.90;;;;;;5051956;28;20045;-74
2023/08/24 04:19:53;;;;;;;38.97;16.00;;;15.50;99.90;;;;;;5053134;28;20045;-76
2023/08/24 04:22:19;;;;;;;36.22;15.20;;;15.40;99.90;;;;;;5055195;28;20389;-76
2023/08/24 04:24:45;;;;;;;38.08;14.98;;;15.30;99.90;;;;;;5057010;28;20040;-77
2023/08/24 04:27:11;;;;;;;43.63;15.52;;;15.30;99.90;;;;;;5055712;28;20045;-76
2023/08/24 04:29:37;;;;;;;48.00;16.73;;;15.30;99.90;;;;;;5056272;28;20088;-75
2023/08/24 04:32:03;;;;;;;42.47;17.63;;;15.20;99.90;;;;;;5057501;28;20048;-75
2023/08/24 04:34:28;;;;;;;36.65;14.95;;;15.20;99.90;;;;;;5057354;28;20370;-73
2023/08/24 04:36:54;;;;;;;41.53;14.68;;;15.20;99.90;;;;;;5056757;28;20047;-76
2023/08/24 04:39:20;;;;;;;45.58;15.65;;;15.20;99.90;;;;;;5057438;28;20056;-75
2023/08/24 04:41:46;;;;;;;35.05;14.63;;;15.20;99.90;;;;;;5056708;28;20053;-76
2023/08/24 04:44:11;;;;;;;33.95;14.45;;;15.20;99.90;;;;;;5056836;28;20041;-75
2023/08/24 04:46:37;;;;;;;43.53;15.47;;;15.20;99.90;;;;;;5055330;28;20381;-77
2023/08/24 04:49:03;;;;;;;33.20;14.43;;;15.20;99.90;;;;;;5055527;28;20047;-75
2023/08/24 04:51:29;;;;;;;37.25;14.95;;;15.20;99.90;;;;;;5055398;28;20057;-77
2023/08/24 04:53:55;;;;;;;33.67;14.75;;;15.20;99.90;;;;;;5055197;28;20128;-76
2023/08/24 04:56:21;;;;;;;32.50;15.40;;;15.20;99.90;;;;;;5056387;28;20056;-76
2023/08/24 04:58:57;;;;;;;38.97;15.70;;;15.30;99.90;;;;;;5055113;28;20397;-76
2023/08/24 05:01:26;;;;;;;30.95;13.13;;;15.30;99.90;;;;;;5055679;28;20049;-75
2023/08/24 05:03:52;;;;;;;37.88;14.70;;;15.30;99.90;;;;;;5056183;28;20067;-76
2023/08/24 05:06:19;;;;;;;38.45;14.73;;;15.40;99.90;;;;;;5055689;28;20381;-75
2023/08/24 05:08:44;;;;;;;35.03;14.00;;;15.50;99.90;;;;;;5054996;28;20041;-76
2023/08/24 05:11:17;;;;;;;30.13;13.30;;;15.50;99.90;;;;;;5055031;28;20045;-76
2023/08/24 05:13:43;;;;;;;32.13;14.20;;;15.60;99.90;;;;;;5088755;28;20059;-76
2023/08/24 05:16:10;;;;;;;30.25;13.13;;;15.60;99.90;;;;;;5054582;28;20069;-75
2023/08/24 05:18:36;;;;;;;30.90;13.23;;;15.70;99.90;;;;;;5054841;28;20049;-75
2023/08/24 05:21:03;;;;;;;34.38;13.40;;;15.70;99.90;;;;;;5056000;28;20521;-75
2023/08/24 05:23:29;;;;;;;32.83;12.43;;;15.80;99.90;;;;;;5038251;28;20045;-76
2023/08/24 05:25:57;;;;;;;37.85;14.05;;;15.80;99.90;;;;;;5055805;28;20049;-75
2023/08/24 05:28:23;;;;;;;31.80;13.52;;;15.90;99.90;;;;;;5055712;28;20041;-75
2023/08/24 05:30:49;;;;;;;27.90;12.63;;;16.00;99.90;;;;;;5088016;28;20045;-76
2023/08/24 05:33:14;;;;;;;31.05;12.27;;;16.00;99.90;;;;;;5054654;28;20063;-76
2023/08/24 05:35:40;;;;;;;35.15;11.93;;;16.10;99.90;;;;;;5054678;28;20386;-75
2023/08/24 05:38:06;;;;;;;38.15;13.38;;;16.10;99.90;;;;;;5055734;28;20056;-77
2023/08/24 05:40:34;;;;;;;30.40;12.30;;;16.20;99.90;;;;;;5054549;28;20059;-76
2023/08/24 05:42:59;;;;;;;30.13;12.38;;;16.30;99.90;;;;;;5056401;28;20444;-75
2023/08/24 05:45:25;;;;;;;33.27;12.70;;;16.30;99.90;;;;;;5056563;28;20049;-77
2023/08/24 05:47:51;;;;;;;33.00;11.87;;;16.40;99.90;;;;;;5054797;28;20466;-76
2023/08/24 05:50:17;;;;;;;26.87;11.30;;;16.40;99.90;;;;;;5054262;28;20128;-75
2023/08/24 05:52:42;;;;;;;25.17;11.23;;;16.50;99.90;;;;;;5055558;28;20041;-75
2023/08/24 05:55:08;;;;;;;26.87;10.93;;;16.50;99.90;;;;;;5054325;28;20094;-75
2023/08/24 05:57:34;;;;;;;29.50;11.27;;;16.50;99.90;;;;;;5054960;28;20045;-74
2023/08/24 05:59:59;;;;;;;24.27;11.20;;;16.60;99.90;;;;;;5055598;28;20191;-74
2023/08/24 06:02:25;;;;;;;26.10;11.30;;;16.70;99.90;;;;;;5055812;28;20056;-75
2023/08/24 06:04:51;;;;;;;35.00;11.85;;;16.70;99.90;;;;;;5037442;28;20134;-75
2023/08/24 06:07:18;;;;;;;35.53;11.40;;;16.80;99.90;;;;;;5055393;28;20049;-73
2023/08/24 06:09:46;;;;;;;28.25;11.55;;;16.90;99.90;;;;;;5053904;28;20053;-74
2023/08/24 06:12:12;;;;;;;24.75;10.52;;;17.00;99.90;;;;;;5054978;28;20100;-74
2023/08/24 06:14:37;;;;;;;28.90;11.67;;;17.20;99.90;;;;;;5087672;28;20041;-74
2023/08/24 06:17:03;;;;;;;24.87;10.43;;;17.20;99.90;;;;;;5053638;28;20618;-74
2023/08/24 06:19:39;;;;;;;29.17;11.30;;;17.30;99.90;;;;;;5053267;28;20059;-76
2023/08/24 06:22:05;;;;;;;28.50;11.88;;;17.40;99.90;;;;;;5055600;28;20056;-76
2023/08/24 06:24:31;;;;;;;27.77;11.70;;;17.40;99.90;;;;;;5054750;28;20053;-75
2023/08/24 06:26:57;;;;;;;34.35;12.30;;;17.40;99.90;;;;;;5087114;28;20053;-75
2023/08/24 06:29:26;;;;;;;30.77;12.43;;;17.40;99.90;;;;;;5054474;28;20390;-76
2023/08/24 06:31:52;;;;;;;35.35;12.75;;;17.40;99.90;;;;;;5053872;28;20049;-75
2023/08/24 06:34:20;;;;;;;29.50;12.80;;;17.40;99.90;;;;;;5054513;28;20045;-77
2023/08/24 06:36:47;;;;;;;34.90;13.18;;;17.40;99.90;;;;;;5054514;28;20288;-75
2023/08/24 06:39:15;;;;;;;;;;;17.50;99.90;;;;;;5054538;28;20414;-76
2023/08/24 06:41:41;;;;;;;35.72;13.60;;;17.50;99.90;;;;;;5055194;28;19929;-76
2023/08/24 06:44:07;;;;;;;38.00;15.13;;;17.60;99.90;;;;;;5052560;28;20053;-76
2023/08/24 06:46:33;;;;;;;37.80;15.27;;;17.60;99.90;;;;;;5053043;28;20128;-73
2023/08/24 06:48:58;;;;;;;39.30;15.07;;;17.60;99.90;;;;;;5052513;28;20052;-75
2023/08/24 06:51:25;;;;;;;36.50;16.00;;;17.70;99.90;;;;;;5054023;28;20044;-74
2023/08/24 06:53:51;;;;;;;40.30;15.35;;;17.70;99.90;;;;;;5053617;28;20539;-75
2023/08/24 06:56:18;;;;;;;52.00;18.00;;;17.80;99.90;;;;;;5053635;28;20048;-74
2023/08/24 06:58:45;;;;;;;;;;;17.90;99.90;;;;;;5054309;28;20088;-74
2023/08/24 07:01:11;;;;;;;41.92;16.08;;;18.00;99.90;;;;;;5053641;28;19975;-75
2023/08/24 07:03:37;;;;;;;44.00;17.07;;;18.00;99.90;;;;;;5052548;28;20059;-72
2023/08/24 07:06:05;;;;;;;49.00;17.85;;;18.10;99.90;;;;;;5053695;28;20049;-74
2023/08/24 07:08:30;;;;;;;41.08;17.08;;;18.20;99.90;;;;;;5052913;28;20045;-74
2023/08/24 07:10:56;;;;;;;43.63;17.93;;;18.30;99.90;;;;;;5052416;28;20048;-75
2023/08/24 07:13:22;;;;;;;42.67;17.67;;;18.30;99.90;;;;;;5053628;28;20045;-74
2023/08/24 07:15:47;;;;;;;37.37;16.83;;;18.40;99.90;;;;;;5052307;28;20524;-73
2023/08/24 07:18:13;;;;;;;51.23;18.27;;;18.50;99.90;;;;;;5053814;28;20045;-74
2023/08/24 07:20:39;;;;;;;44.50;16.83;;;18.60;99.90;;;;;;5054015;28;20384;-73
2023/08/24 07:23:05;;;;;;;39.27;17.67;;;18.70;99.90;;;;;;5019384;28;20516;-74
2023/08/24 07:25:31;;;;;;;45.57;18.53;;;18.80;99.90;;;;;;5053164;28;20068;-73
2023/08/24 07:28:00;;;;;;;41.37;18.13;;;18.80;99.90;;;;;;5052807;28;20772;-73
2023/08/24 07:30:29;;;;;;;47.97;19.02;;;18.90;99.90;;;;;;5053375;28;20088;-73
2023/08/24 07:32:55;;;;;;;44.55;18.95;;;19.00;99.90;;;;;;5053700;28;20052;-74
2023/08/24 07:35:24;;;;;;;46.47;18.33;;;19.00;99.90;;;;;;5053306;28;20157;-74
2023/08/24 07:37:50;;;;;;;44.85;19.00;;;19.10;99.90;;;;;;5052154;28;20501;-74
2023/08/24 07:40:16;;;;;;;50.15;17.70;;;19.20;99.90;;;;;;5035829;28;20052;-74
2023/08/24 07:42:56;;;;;;;44.87;18.27;;;19.30;99.90;;;;;;5053829;28;20140;-73
2023/08/24 07:45:25;;;;;;;46.08;17.30;;;19.40;99.90;;;;;;5053550;28;20049;-72
2023/08/24 07:47:51;;;;;;;43.25;18.30;;;19.50;99.90;;;;;;5053261;28;20461;-75
2023/08/24 07:50:17;;;;;;;46.60;18.90;;;19.60;99.90;;;;;;5052067;28;20408;-73
2023/08/24 07:52:43;;;;;;;42.50;17.37;;;19.70;99.90;;;;;;5051666;28;20107;-73
2023/08/24 07:55:09;;;;;;;44.83;18.27;;;19.70;99.90;;;;;;5052508;28;20557;-73
2023/08/24 07:57:36;;;;;;;41.40;17.00;;;19.80;99.90;;;;;;5059639;28;20037;-72
2023/08/24 08:00:03;;;;;;;41.38;17.42;;;19.90;99.90;;;;;;5060068;28;20381;-73
2023/08/24 08:02:29;;;;;;;44.70;17.67;;;20.00;99.90;;;;;;5059367;28;20481;-73
2023/08/24 08:04:59;;;;;;;43.70;17.57;;;20.00;99.90;;;;;;5058896;28;20103;-71
2023/08/24 08:07:26;;;;;;;47.40;18.15;;;20.20;99.90;;;;;;5059526;28;20079;-72
2023/08/24 08:09:51;;;;;;;;;;;20.30;99.90;;;;;;5060257;28;20111;-73
2023/08/24 08:12:17;;;;;;;43.03;17.70;;;20.40;99.90;;;;;;5059639;28;19921;-74
2023/08/24 08:14:43;;;;;;;44.07;17.73;;;20.40;99.90;;;;;;5059620;28;20313;-72
2023/08/24 08:17:12;;;;;;;42.70;17.17;;;20.50;99.90;;;;;;5059114;28;20405;-74
2023/08/24 08:19:41;;;;;;;45.88;18.20;;;20.50;99.90;;;;;;5042857;28;20099;-73
2023/08/24 08:22:07;;;;;;;38.13;16.90;;;20.60;99.90;;;;;;5092499;28;20041;-72
2023/08/24 08:24:33;;;;;;;38.57;17.30;;;20.70;99.90;;;;;;5058843;28;20044;-72
2023/08/24 08:26:59;;;;;;;47.20;17.10;;;20.80;99.90;;;;;;5042054;28;20049;-73
2023/08/24 08:29:25;;;;;;;41.63;17.30;;;21.00;99.90;;;;;;5042315;28;20049;-72
2023/08/24 08:31:51;;;;;;;44.00;18.37;;;21.10;99.90;;;;;;5059589;28;20397;-73
2023/08/24 08:34:17;;;;;;;40.87;16.73;;;21.20;99.90;;;;;;5059588;28;20068;-73
2023/08/24 08:36:42;;;;;;;40.67;16.83;;;21.40;99.90;;;;;;5042237;28;20132;-73
2023/08/24 08:39:08;;;;;;;46.03;16.80;;;21.50;99.90;;;;;;5059638;28;20049;-73
2023/08/24 08:41:44;;;;;;;40.70;17.57;;;21.70;99.90;;;;;;5058231;28;20127;-73
2023/08/24 08:44:15;;;;;;;38.60;18.67;;;21.90;99.90;;;;;;5075170;28;20057;-73
2023/08/24 08:46:45;;;;;;;43.80;18.77;;;22.00;99.90;;;;;;5092809;28;20368;-72
2023/08/24 08:49:15;;;;;;;46.15;19.65;;;22.10;99.90;;;;;;5059273;28;20158;-74
2023/08/24 08:51:41;;;;;;;45.63;19.23;;;22.20;99.90;;;;;;5059463;28;20047;-72
2023/08/24 08:54:07;;;;;;;43.23;19.00;;;22.40;99.90;;;;;;5074601;28;20044;-73
2023/08/24 08:56:33;;;;;;;41.20;19.33;;;22.60;99.90;;;;;;5059337;28;20284;-73
2023/08/24 08:59:00;;;;;;;52.38;19.95;;;22.80;99.90;;;;;;5059286;28;20045;-73
2023/08/24 09:01:27;;;;;;;41.22;18.92;;;23.00;99.90;;;;;;5075579;28;20060;-73
2023/08/24 09:03:54;;;;;;;45.55;20.30;;;23.20;99.90;;;;;;5057983;28;20044;-70
2023/08/24 09:06:20;;;;;;;49.83;20.05;;;23.30;99.90;;;;;;5091622;28;20481;-71
2023/08/24 09:08:47;;;;;;;49.38;20.17;;;23.40;99.90;;;;;;5088269;28;20097;-74
2023/08/24 09:11:14;;;;;;;43.80;18.60;;;23.50;99.90;;;;;;5055883;28;20508;-71
2023/08/24 09:13:40;;;;;;;41.13;18.35;;;23.70;99.90;;;;;;5056081;28;20055;-70
2023/08/24 09:16:07;;;;;;;44.67;18.53;;;23.80;99.90;;;;;;5054370;28;20416;-72
2023/08/24 09:18:39;;;;;;;38.60;17.55;;;23.90;99.90;;;;;;5054639;28;20432;-73
2023/08/24 09:21:09;;;;;;;36.20;16.98;;;24.00;99.90;;;;;;5054390;28;20049;-71
2023/08/24 09:23:35;;;;;;;40.10;17.67;;;24.20;99.90;;;;;;5038112;28;20505;-73
2023/08/24 09:26:01;;;;;;;45.27;19.13;;;24.30;99.90;;;;;;5054440;28;20178;-74
2023/08/24 09:28:26;;;;;;;35.70;17.77;;;24.60;99.90;;;;;;5056310;28;20033;-74
2023/08/24 09:30:54;;;;;;;46.17;17.97;;;24.70;99.90;;;;;;5054394;28;20049;-72
2023/08/24 09:33:22;;;;;;;41.13;19.25;;;24.90;99.90;;;;;;5055416;28;20056;-73
2023/08/24 09:35:54;;;;;;;45.72;18.98;;;25.00;99.90;;;;;;5054285;28;20049;-74
2023/08/24 09:38:23;;;;;;;41.83;20.20;;;24.90;99.90;;;;;;5055990;28;20056;-73
2023/08/24 09:40:53;;;;;;;46.67;20.65;;;25.00;99.90;;;;;;5055384;28;20045;-72
2023/08/24 09:43:19;;;;;;;46.83;20.73;;;24.90;99.90;;;;;;5071028;28;20049;-73
2023/08/24 09:45:52;;;;;;;48.92;20.92;;;24.80;99.90;;;;;;5087954;28;20056;-72
2023/08/24 09:48:18;;;;;;;50.85;19.80;;;24.70;99.90;;;;;;5055617;28;20095;-73
2023/08/24 09:50:48;;;;;;;46.63;21.75;;;24.60;99.90;;;;;;5055208;28;20049;-73
2023/08/24 09:53:18;;;;;;;45.75;21.67;;;24.60;99.90;;;;;;5054134;28;20375;-71
2023/08/24 09:56:00;;;;;;;43.28;19.85;;;24.50;99.90;;;;;;5038360;28;20099;-73
2023/08/24 09:58:27;;;;;;;48.58;21.40;;;24.50;99.90;;;;;;5055082;28;20045;-74
2023/08/24 10:00:53;;;;;;;45.60;22.10;;;24.40;99.90;;;;;;5053847;28;20045;-72
2023/08/24 10:03:24;;;;;;;49.75;23.00;;;24.50;99.90;;;;;;5053623;28;20049;-71
2023/08/24 10:05:53;;;;;;;49.30;22.20;;;24.40;99.90;;;;;;5087784;28;20469;-73
2023/08/24 10:08:23;;;;;;;47.83;22.10;;;24.30;99.90;;;;;;5054731;28;20033;-75
2023/08/24 10:10:55;;;;;;;46.55;22.02;;;24.20;99.90;;;;;;5054851;28;20080;-73
2023/08/24 10:13:36;;;;;;;46.70;21.55;;;24.20;99.90;;;;;;5055317;28;20044;-73
2023/08/24 10:16:04;;;;;;;48.80;23.15;;;24.10;99.90;;;;;;5054905;28;20194;-74
2023/08/24 10:18:31;;;;;;;51.75;21.45;;;24.10;99.90;;;;;;5054103;28;20077;-73
2023/08/24 10:20:58;;;;;;;45.67;21.92;;;24.10;99.90;;;;;;5054888;28;20087;-73
2023/08/24 10:23:24;;;;;;;42.58;20.17;;;24.00;99.90;;;;;;5054546;28;20380;-75
2023/08/24 10:25:51;;;;;;;51.03;22.30;;;24.00;99.90;;;;;;5036982;28;20107;-74
2023/08/24 10:28:19;;;;;;;45.20;21.25;;;23.90;99.90;;;;;;5054805;28;20401;-72
2023/08/24 10:30:47;;;;;;;45.33;21.73;;;23.90;99.90;;;;;;5054270;28;20051;-74
2023/08/24 10:33:15;;;;;;;51.25;21.20;;;23.90;99.90;;;;;;5053294;28;20041;-74
2023/08/24 10:35:41;;;;;;;45.83;21.90;;;23.90;99.90;;;;;;5053846;28;20146;-73
2023/08/24 10:38:07;;;;;;;49.50;22.35;;;23.90;99.90;;;;;;5054172;28;20044;-73
2023/08/24 10:40:43;;;;;;;43.85;21.45;;;23.90;99.90;;;;;;5053931;28;20136;-73
2023/08/24 10:43:09;;;;;;;53.63;23.25;;;23.90;99.90;;;;;;5055486;28;20048;-73
2023/08/24 10:45:59;;;;;;;48.15;23.02;;;23.90;99.90;;;;;;5054488;28;20044;-73
2023/08/24 10:48:44;;;;;;;44.33;22.73;;;23.90;99.90;;;;;;5051449;28;20053;-74
2023/08/24 10:51:28;;;;;;;47.38;22.67;;;23.90;99.90;;;;;;5053250;28;20053;-74
2023/08/24 10:54:10;;;;;;;47.83;22.25;;;23.90;99.90;;;;;;5053355;28;20076;-75
2023/08/24 10:56:54;;;;;;;51.45;23.50;;;23.90;99.90;;;;;;5037132;28;20128;-74
2023/08/24 10:59:34;;;;;;;44.60;22.90;;;24.10;99.90;;;;;;5037076;28;20253;-73
2023/08/24 11:02:04;;;;;;;50.05;23.70;;;24.20;99.90;;;;;;5038726;28;20056;-74
2023/08/24 11:04:29;;;;;;;50.95;24.10;;;24.40;99.90;;;;;;5053849;28;20382;-72
2023/08/24 11:06:57;;;;;;;45.65;23.83;;;24.60;99.90;;;;;;5053910;28;20037;-72
2023/08/24 11:09:23;;;;;;;45.72;22.17;;;24.80;99.90;;;;;;5070191;28;20044;-73
2023/08/24 11:12:03;;;;;;;;;;;25.00;99.90;;;;;;5053382;28;20049;-73
2023/08/24 11:14:30;;;;;;;42.88;23.08;;;25.20;99.90;;;;;;5068732;28;19921;-73
2023/08/24 11:17:02;;;;;;;46.17;23.90;;;25.30;99.90;;;;;;5053229;28;20067;-73
2023/08/24 11:19:30;;;;;;;53.28;25.23;;;25.30;99.90;;;;;;5053469;28;20053;-73
2023/08/24 11:21:56;;;;;;;46.38;24.77;;;25.20;99.90;;;;;;5053565;28;20131;-73
2023/08/24 11:24:22;;;;;;;53.20;25.17;;;25.20;99.90;;;;;;5052223;28;20132;-71
2023/08/24 11:26:49;;;;;;;52.03;23.58;;;25.20;99.90;;;;;;5035889;28;20408;-73
2023/08/24 11:29:15;;;;;;;46.63;23.00;;;25.30;99.90;;;;;;5053475;28;20049;-73
2023/08/24 11:31:41;;;;;;;45.42;22.75;;;25.40;99.90;;;;;;5052611;28;20049;-72
2023/08/24 11:34:07;;;;;;;46.40;24.25;;;25.50;99.90;;;;;;5053734;28;20543;-72
2023/08/24 11:37:02;;;;;;;44.67;22.08;;;25.60;99.90;;;;;;5053366;28;20041;-72
2023/08/24 11:39:31;;;;;;;44.05;22.55;;;25.70;99.90;;;;;;5048356;28;20092;-72
2023/08/24 11:42:02;;;;;;;45.88;21.75;;;25.90;99.90;;;;;;5036045;28;20055;-73
2023/08/24 11:44:28;;;;;;;44.22;21.67;;;25.90;99.90;;;;;;5086142;28;20135;-74
2023/08/24 11:46:58;;;;;;;42.38;21.45;;;26.00;99.90;;;;;;5053215;28;20127;-72
2023/08/24 11:49:24;;;;;;;51.25;22.15;;;26.00;99.90;;;;;;5053166;28;20041;-72
2023/08/24 11:51:51;;;;;;;42.13;22.00;;;26.00;99.90;;;;;;5053187;28;20047;-72
2023/08/24 11:54:20;;;;;;;46.90;22.63;;;26.00;99.90;;;;;;5053157;28;20048;-73
2023/08/24 11:56:46;;;;;;;46.42;21.52;;;25.80;99.90;;;;;;5053783;28;20060;-72
2023/08/24 11:59:16;;;;;;;40.67;19.67;;;25.70;99.90;;;;;;5052432;28;20409;-73
2023/08/24 12:01:43;;;;;;;46.05;21.75;;;25.60;99.90;;;;;;5053027;28;20045;-72
2023/08/24 12:04:09;;;;;;;43.17;23.40;;;25.40;99.90;;;;;;5051496;28;20492;-72
2023/08/24 12:06:35;;;;;;;41.88;21.98;;;25.40;99.90;;;;;;5052103;28;20076;-74
2023/08/24 12:09:02;;;;;;;44.38;21.65;;;25.40;99.90;;;;;;5052937;28;20045;-73
2023/08/24 12:11:28;;;;;;;47.28;21.50;;;25.30;99.90;;;;;;5052868;28;20057;-72
2023/08/24 12:13:55;;;;;;;45.77;21.53;;;25.40;99.90;;;;;;5051806;28;20127;-73
2023/08/24 12:16:23;;;;;;;43.95;22.40;;;25.50;99.90;;;;;;5051565;28;20299;-73
2023/08/24 12:18:53;;;;;;;47.65;22.98;;;25.60;99.90;;;;;;5068655;28;20041;-74
2023/08/24 12:21:19;;;;;;;46.88;23.38;;;25.70;99.90;;;;;;5053464;28;20432;-73
2023/08/24 12:23:55;;;;;;;49.75;23.65;;;25.70;99.90;;;;;;5051854;28;20394;-73
2023/08/24 12:26:20;;;;;;;42.30;21.50;;;25.80;99.90;;;;;;5053167;28;20053;-75
2023/08/24 12:28:51;;;;;;;42.00;20.43;;;25.90;99.90;;;;;;5053872;28;20357;-74
2023/08/24 12:31:18;;;;;;;47.92;21.17;;;26.10;99.90;;;;;;5052575;28;20372;-73
2023/08/24 12:33:45;;;;;;;40.38;19.75;;;26.30;99.90;;;;;;5052798;28;20045;-74